Time;durP1;ratioP1;P1;durP2;ratioP2;P2;SDS_P1;SDS_P2;PMS_P1;PMS_P2;Temp;Humidity;BMP_temperature;BMP_pressure;BME280_temperature;BME280_humidity;BME280_pressure;Samples;Min_cycle;Max_cycle;Signal;HPM_P1;HPM_P2
2023/08/25 00:00:28;;;;;;;;;;;;;;;19.92;100.00;100603.91;5036156;28;19924;-77
2023/08/25 00:02:53;;;;;;;;;;;;;;;19.92;100.00;100594.91;5029098;28;19924;-77
2023/08/25 00:05:19;;;;;;;;;;;;;;;19.92;100.00;100590.28;5034765;28;19971;-77
2023/08/25 00:07:44;;;;;;;;;;;;;;;19.92;100.00;100595.72;5034860;28;19975;-77
2023/08/25 00:10:09;;;;;;;;;;;;;;;19.94;100.00;100599.00;5032911;28;19916;-77
2023/08/25 00:12:35;;;;;;;;;;;;;;;19.92;100.00;100590.28;5038449;28;19951;-77
2023/08/25 00:15:00;;;;;;;;;;;;;;;19.90;100.00;100602.53;5035682;28;19913;-77
2023/08/25 00:17:25;;;;;;;;;;;;;;;19.90;100.00;100608.78;5031585;28;20552;-77
2023/08/25 00:19:51;;;;;;;;;;;;;;;19.91;100.00;100607.72;5029026;28;19917;-77
2023/08/25 00:22:17;;;;;;;;;;;;;;;19.86;100.00;100599.53;5035061;28;19912;-77
2023/08/25 00:24:42;;;;;;;;;;;;;;;19.86;100.00;100602.25;5032785;28;19984;-77
2023/08/25 00:27:08;;;;;;;;;;;;;;;19.84;100.00;100597.06;5034320;28;19916;-77
2023/08/25 00:29:33;;;;;;;;;;;;;;;19.85;100.00;100597.91;5037381;28;19913;-77
2023/08/25 00:31:59;;;;;;;;;;;;;;;19.83;100.00;100605.50;5029969;28;19932;-77
2023/08/25 00:34:24;;;;;;;;;;;;;;;19.81;100.00;100605.75;5031402;28;19924;-77
2023/08/25 00:36:49;;;;;;;;;;;;;;;19.80;100.00;100611.47;5030466;28;20420;-77
2023/08/25 00:39:15;;;;;;;;;;;;;;;19.76;100.00;100613.06;5034122;28;19913;-77
2023/08/25 00:41:40;;;;;;;;;;;;;;;19.74;100.00;100610.63;5032024;28;21646;-77
2023/08/25 00:44:06;;;;;;;;;;;;;;;19.68;100.00;100611.69;5033467;28;19915;-77
2023/08/25 00:46:31;;;;;;;;;;;;;;;19.64;100.00;100613.25;5033987;28;20000;-78
2023/08/25 00:48:57;;;;;;;;;;;;;;;19.57;100.00;100618.94;5028918;28;19999;-77
2023/08/25 00:51:23;;;;;;;;;;;;;;;19.57;100.00;100629.81;5030866;28;19925;-77
2023/08/25 00:53:49;;;;;;;;;;;;;;;19.51;100.00;100630.88;5031633;28;20385;-77
2023/08/25 00:56:14;;;;;;;;;;;;;;;19.56;100.00;100646.44;5042350;28;19917;-77
2023/08/25 00:58:40;;;;;;;;;;;;;;;19.47;100.00;100653.41;5031094;28;19993;-77
2023/08/25 01:01:06;;;;;;;;;;;;;;;19.41;100.00;100660.72;5030792;28;20289;-77
2023/08/25 01:03:32;;;;;;;;;;;;;;;19.38;100.00;100669.41;5031345;28;19970;-76
2023/08/25 01:05:57;;;;;;;;;;;;;;;19.35;100.00;100669.94;5029109;28;19948;-77
2023/08/25 01:08:22;;;;;;;;;;;;;;;19.28;100.00;100666.63;5029364;28;20419;-77
2023/08/25 01:11:03;;;;;;;;;;;;;;;19.25;100.00;100664.44;5029644;28;19913;-77
2023/08/25 01:13:47;;;;;;;;;;;;;;;19.28;100.00;100669.34;5031166;28;19959;-77
2023/08/25 01:16:16;;;;;;;;;;;;;;;19.25;100.00;100665.25;5029750;28;19965;-77
2023/08/25 01:18:41;;;;;;;;;;;;;;;19.22;100.00;100659.53;5031693;28;19917;-77
2023/08/25 01:21:07;;;;;;;;;;;;;;;19.22;100.00;100656.81;5032799;28;19921;-76
2023/08/25 01:23:37;;;;;;;;;;;;;;;19.20;100.00;100660.59;5031235;28;19951;-77
2023/08/25 01:26:03;;;;;;;;;;;;;;;19.18;100.00;100668.19;5033290;28;19959;-76
2023/08/25 01:28:28;;;;;;;;;;;;;;;19.13;100.00;100673.59;5030019;28;20357;-77
2023/08/25 01:30:56;;;;;;;;;;;;;;;19.17;100.00;100679.31;5030444;28;20370;-77
2023/08/25 01:33:26;;;;;;;;;;;;;;;19.13;100.00;100681.75;5030073;28;19913;-77
2023/08/25 01:35:57;;;;;;;;;;;;;;;19.13;100.00;100691.81;5032153;28;19968;-77
2023/08/25 01:38:36;;;;;;;;;;;;;;;19.12;100.00;100693.72;5031866;28;20453;-77
2023/08/25 01:41:04;;;;;;;;;;;;;;;19.10;100.00;100704.03;5029181;28;20393;-77
2023/08/25 01:43:34;;;;;;;;;;;;;;;19.12;100.00;100706.47;5029863;28;19913;-77
2023/08/25 01:45:59;;;;;;;;;;;;;;;19.15;100.00;100709.50;5032720;28;19913;-77
2023/08/25 01:48:26;;;;;;;;;;;;;;;19.14;100.00;100712.47;5027528;28;20384;-77
2023/08/25 01:50:52;;;;;;;;;;;;;;;19.10;100.00;100712.19;5030518;28;19928;-77
2023/08/25 01:53:17;;;;;;;;;;;;;;;19.10;100.00;100720.31;5030340;28;19921;-77
2023/08/25 01:55:42;;;;;;;;;;;;;;;19.13;100.00;100721.72;5034560;28;20510;-77
2023/08/25 01:58:08;;;;;;;;;;;;;;;19.10;100.00;100720.31;5032732;28;19976;-78
2023/08/25 02:00:34;;;;;;;;;;;;;;;19.09;100.00;100731.44;5032289;28;19924;-77
2023/08/25 02:02:59;;;;;;;;;;;;;;;19.12;100.00;100725.50;5030767;28;19917;-78
2023/08/25 02:05:24;;;;;;;;;;;;;;;19.11;100.00;100716.53;5031312;28;20310;-77
2023/08/25 02:07:50;;;;;;;;;;;;;;;19.10;100.00;100722.22;5029884;28;19917;-78
2023/08/25 02:10:15;;;;;;;;;;;;;;;19.13;100.00;100719.81;5030561;28;19924;-78
2023/08/25 02:12:40;;;;;;;;;;;;;;;19.10;100.00;100714.91;5030212;28;19969;-77
2023/08/25 02:15:06;;;;;;;;;;;;;;;19.10;100.00;100722.22;5031628;28;20421;-79
2023/08/25 02:17:31;;;;;;;;;;;;;;;19.06;100.00;100723.81;5029660;28;19913;-78
2023/08/25 02:19:56;;;;;;;;;;;;;;;19.11;100.00;100719.25;5028409;28;19916;-77
2023/08/25 02:22:22;;;;;;;;;;;;;;;19.11;100.00;100716.53;5028576;28;20334;-78
2023/08/25 02:24:48;;;;;;;;;;;;;;;19.14;100.00;100723.34;5028936;28;20346;-77
2023/08/25 02:27:13;;;;;;;20.20;16.60;;;;;;;19.25;100.00;100725.06;5029245;28;20393;-77
2023/08/25 02:29:38;;;;;;;14.93;12.90;;;;;;;19.30;100.00;100732.47;5028956;28;20668;-78
2023/08/25 02:32:04;;;;;;;20.40;18.30;;;;;;;18.84;100.00;100651.34;5027797;28;20204;-78
2023/08/25 02:34:30;;;;;;;18.57;16.10;;;;;;;19.14;100.00;100693.44;5030749;28;20837;-77
2023/08/25 02:36:55;;;;;;;16.70;14.87;;;;;;;19.07;100.00;100682.78;5027984;28;20180;-78
2023/08/25 02:39:20;;;;;;;;;;;;;;;19.41;100.00;100728.72;5028208;28;20618;-78
2023/08/25 02:41:46;;;;;;;;;;;;;;;19.43;100.00;100727.38;5031444;28;19923;-77
2023/08/25 02:44:11;;;;;;;;;;;;;;;19.54;100.00;100716.59;5029981;28;19917;-78
2023/08/25 02:46:37;;;;;;;;;;;;;;;19.45;100.00;100715.44;5030198;28;19924;-78
2023/08/25 02:49:03;;;;;;;;;;;;;;;19.41;100.00;100704.25;5031089;28;19917;-78
2023/08/25 02:51:28;;;;;;;;;;;;;;;19.32;100.00;100697.66;5034283;28;20424;-77
2023/08/25 02:53:53;;;;;;;;;;;;;;;19.39;100.00;100701.00;5032628;28;19916;-78
2023/08/25 02:56:19;;;;;;;;;;;;;;;19.16;100.00;100697.53;5032836;28;19924;-78
2023/08/25 02:58:44;;;;;;;;;;;;;;;19.13;100.00;100706.22;5033706;28;19916;-78
2023/08/25 03:01:10;;;;;;;;;;;;;;;19.13;100.00;100708.13;5035651;28;19917;-77
2023/08/25 03:03:36;;;;;;;;;;;;;;;19.12;100.00;100715.47;5042476;28;19920;-78
2023/08/25 03:06:01;;;;;;;;;;;;;;;19.11;100.00;100716.53;5032245;28;19962;-78
2023/08/25 03:08:27;;;;;;;;;;;;;;;19.08;100.00;100725.19;5033057;28;20011;-77
2023/08/25 03:10:53;;;;;;;;;;;;;;;19.09;100.00;100726.00;5033283;28;19923;-77
2023/08/25 03:13:18;;;;;;;;;;;;;;;19.12;100.00;100737.22;5030593;28;20014;-77
2023/08/25 03:15:44;;;;;;;;;;;;;;;19.12;100.00;100739.09;5034235;28;19913;-78
2023/08/25 03:18:09;;;;;;;;;;;;;;;19.12;100.00;100741.81;5031950;28;20368;-78
2023/08/25 03:20:34;;;;;;;;;;;;;;;19.16;100.00;100746.47;5034094;28;19916;-77
2023/08/25 03:23:00;;;;;;;;;;;;;;;19.13;100.00;100752.44;5035699;28;19940;-77
2023/08/25 03:25:25;;;;;;;;;;;;;;;19.26;100.00;100759.34;5033255;28;20184;-78
2023/08/25 03:27:51;;;;;;;;;;;;;;;19.27;100.00;100765.63;5038682;28;19963;-78
2023/08/25 03:30:16;;;;;;;;;;;;;;;19.23;100.00;100764.47;5030847;28;20405;-78
2023/08/25 03:32:41;;;;;;;;;;;;;;;19.18;100.00;100768.81;5038013;28;19986;-77
2023/08/25 03:35:08;;;;;;;;;;;;;;;19.24;100.00;100768.81;5032176;28;20003;-78
2023/08/25 03:37:33;;;;;;;;;;;;;;;19.29;100.00;100772.41;5032053;28;19917;-77
2023/08/25 03:39:58;;;;;;;;;;;;;;;19.28;100.00;100768.06;5032660;28;19913;-79
2023/08/25 03:42:24;;;;;;;;;;;;;;;19.28;100.00;100764.53;5032725;28;19916;-79
2023/08/25 03:44:49;;;;;;;;;;;;;;;19.36;100.00;100774.94;5033806;28;20448;-77
2023/08/25 03:47:14;;;;;;;;;;;;;;;19.37;100.00;100766.50;5032160;28;20515;-78
2023/08/25 03:49:40;;;;;;;;;;;;;;;19.39;100.00;100774.41;5032723;28;19913;-78
2023/08/25 03:52:05;;;;;;;;;;;;;;;19.39;100.00;100750.75;5032504;28;19972;-78
2023/08/25 03:54:31;;;;;;;;;;;;;;;19.34;100.00;100747.16;5035978;28;19917;-77
2023/08/25 03:56:57;;;;;;;;;;;;;;;19.32;100.00;100738.44;5034336;28;19928;-78
2023/08/25 03:59:22;;;;;;;;;;;;;;;19.34;100.00;100730.84;5030550;28;19960;-79
2023/08/25 04:01:48;;;;;;;;;;;;;;;19.39;100.00;100720.03;5032665;28;19955;-78
2023/08/25 04:04:13;;;;;;;;;;;;;;;19.30;100.00;100713.44;5032262;28;19917;-78
2023/08/25 04:06:39;;;;;;;;;;;;;;;19.39;100.00;100717.31;5032102;28;20011;-78
2023/08/25 04:09:04;;;;;;;;;;;;;;;19.41;100.00;100705.09;5032675;28;20365;-77
2023/08/25 04:11:29;;;;;;;;;;;;;;;19.40;100.00;100703.44;5032909;28;19921;-78
2023/08/25 04:13:55;;;;;;;;;;;;;;;19.44;100.00;100692.88;5034441;28;20389;-78
2023/08/25 04:16:20;;;;;;;;;;;;;;;19.38;100.00;100689.28;5032447;28;20286;-78
2023/08/25 04:18:45;;;;;;;;;;;;;;;19.41;100.00;100679.75;5031948;28;20000;-77
2023/08/25 04:21:10;;;;;;;;;;;;;;;19.41;100.00;100672.44;5031888;28;20294;-77
2023/08/25 04:23:36;;;;;;;;;;;;;;;19.31;100.00;100656.03;5031125;28;19963;-78
2023/08/25 04:26:01;;;;;;;;;;;;;;;19.36;100.00;100650.66;5031269;28;20397;-78
2023/08/25 04:28:27;;;;;;;;;;;;;;;19.46;100.00;100640.91;5045533;28;19916;-77
2023/08/25 04:30:53;;;;;;;;;;;;;;;19.35;100.00;100629.13;5031692;28;20592;-77
2023/08/25 04:33:18;;;;;;;;;;;;;;;19.40;100.00;100626.47;5037888;28;19917;-77
2023/08/25 04:35:44;;;;;;;;;;;;;;;19.29;100.00;100620.13;5033956;28;20050;-77
2023/08/25 04:38:09;;;;;;;;;;;;;;;19.38;100.00;100613.16;5031262;28;20362;-78
2023/08/25 04:40:34;;;;;;;;;;;;;;;19.47;100.00;100613.47;5035006;28;19924;-77
2023/08/25 04:43:00;;;;;;;;;;;;;;;19.38;100.00;100598.69;5032485;28;20361;-77
2023/08/25 04:45:26;;;;;;;;;;;;;;;19.41;100.00;100595.44;5035089;28;20281;-77
2023/08/25 04:47:52;;;;;;;;;;;;;;;19.33;100.00;100594.06;5031537;28;19916;-77
2023/08/25 04:50:17;;;;;;;;;;;;;;;19.31;100.00;100590.78;5032350;28;19916;-78
2023/08/25 04:52:42;;;;;;;;;;;;;;;19.34;100.00;100595.69;5030962;28;19920;-78
2023/08/25 04:55:10;;;;;;;;;;;;;;;19.40;100.00;100588.38;5035472;28;19927;-78
2023/08/25 04:57:35;;;;;;;;;;;;;;;19.40;100.00;100581.03;5045531;28;19925;-77
2023/08/25 05:00:05;;;;;;;;;;;;;;;19.49;100.00;100578.63;5031238;28;19920;-78
2023/08/25 05:02:30;;;;;;;;;;;;;;;19.50;100.00;100580.28;5032189;28;19913;-78
2023/08/25 05:04:56;;;;;;;;;;;;;;;19.52;100.00;100574.56;5031361;28;19940;-78
2023/08/25 05:07:21;;;;;;;;;;;;;;;19.53;100.00;100563.44;5031037;28;20023;-77
2023/08/25 05:09:47;;;;;;;;;;;;;;;19.50;100.00;100572.13;5032858;28;20023;-78
2023/08/25 05:12:12;;;;;;;;;;;;;;;19.47;100.00;100572.66;5030191;28;19927;-78
2023/08/25 05:14:37;;;;;;;;;;;;;;;19.44;100.00;100565.03;5032438;28;19913;-78
2023/08/25 05:17:03;;;;;;;;;;;;;;;19.48;100.00;100568.84;5039708;28;19917;-79
2023/08/25 05:19:28;;;;;;;;;;;;;;;19.41;100.00;100571.81;5032575;28;19913;-78
2023/08/25 05:21:53;;;;;;;;;;;;;;;19.35;100.00;100582.91;5030041;28;19971;-78
2023/08/25 05:24:20;;;;;;;;;;;;;;;18.65;100.00;100468.84;5031536;28;21124;-78
2023/08/25 05:26:51;;;;;;;;;;;;;;;19.47;100.00;100579.97;5030558;28;20384;-80
2023/08/25 05:29:20;;;;;;;;;;;;;;;19.54;100.00;100597.72;5031189;28;19921;-79
2023/08/25 05:31:45;;;;;;;;;;;;;;;19.57;100.00;100586.31;5031654;28;19925;-79
2023/08/25 05:34:10;;;;;;;;;;;;;;;19.62;100.00;100586.34;5031955;28;19923;-80
2023/08/25 05:36:36;;;;;;;;;;;;;;;19.63;100.00;100587.97;5030764;28;19963;-78
2023/08/25 05:39:01;;;;;;;;;;;;;;;19.64;100.00;100581.44;5033906;28;19913;-80
2023/08/25 05:41:27;;;;;;;;;;;;;;;19.68;100.00;100584.47;5032872;28;19917;-79
2023/08/25 05:43:52;;;;;;;;;;;;;;;19.61;100.00;100572.97;5032556;28;20358;-80
2023/08/25 05:46:18;;;;;;;;;;;;;;;19.67;100.00;100576.56;5029068;28;20475;-80
2023/08/25 05:48:43;;;;;;;;;;;;;;;19.69;100.00;100580.66;5029283;28;19917;-80
2023/08/25 05:51:08;;;;;;;;;;;;;;;19.67;100.00;100579.28;5031123;28;19924;-80
2023/08/25 05:53:34;;;;;;;;;;;;;;;19.58;100.00;100573.50;5029340;28;20008;-80
2023/08/25 05:55:59;;;;;;;;;;;;;;;19.54;100.00;100583.31;5032355;28;19920;-78
2023/08/25 05:58:24;;;;;;;;;;;;;;;19.53;100.00;100577.03;5032011;28;19916;-78
2023/08/25 06:00:50;;;;;;;;;;;;;;;19.60;100.00;100577.59;5031250;28;19971;-79
2023/08/25 06:03:16;;;;;;;34.23;24.57;;;;;;;18.63;100.00;100473.75;5025851;28;20903;-78
2023/08/25 06:05:42;;;;;;;38.10;27.40;;;;;;;18.57;100.00;100387.84;5027127;28;20824;-79
2023/08/25 06:08:08;;;;;;;37.50;25.93;;;;;;;19.22;100.00;100496.38;5028203;28;20193;-79
2023/08/25 06:10:35;;;;;;;35.83;26.23;;;;;;;19.56;100.00;100622.75;5029569;28;20541;-80
2023/08/25 06:13:00;;;;;;;32.73;25.53;;;;;;;19.52;100.00;100561.78;5030844;28;20560;-80
2023/08/25 06:15:26;;;;;;;38.60;27.87;;;;;;;18.95;100.00;100486.47;5033510;28;20944;-80
2023/08/25 06:17:51;;;;;;;;;;;;;;;19.70;100.00;100584.19;5029628;28;20185;-80
2023/08/25 06:20:17;;;;;;;37.73;26.83;;;;;;;19.62;100.00;100585.53;5032161;28;20369;-79
2023/08/25 06:22:43;;;;;;;36.93;27.13;;;;;;;19.66;100.00;100586.66;5029556;28;20218;-79
2023/08/25 06:25:09;;;;;;;39.93;27.90;;;;;;;19.65;100.00;100590.47;5029800;28;20199;-79
2023/08/25 06:27:35;;;;;;;37.43;28.20;;;;;;;18.97;100.00;100500.59;5031711;28;20666;-78
2023/08/25 06:30:02;;;;;;;;;;;;;;;19.65;100.00;100612.22;5030819;28;20453;-79
2023/08/25 06:32:28;;;;;;;;;;;;;;;19.56;100.00;100614.59;5031732;28;19936;-78
2023/08/25 06:34:53;;;;;;;;;;;;;;;19.69;100.00;100623.41;5033037;28;19921;-78
2023/08/25 06:37:18;;;;;;;;;;;;;;;19.55;100.00;100612.13;5028245;28;19913;-79
2023/08/25 06:39:45;;;;;;;;;;;;;;;19.62;100.00;100618.16;5033730;28;19917;-79
2023/08/25 06:42:11;;;;;;;;;;;;;;;19.63;100.00;100617.88;5029741;28;19994;-79
2023/08/25 06:44:37;;;;;;;;;;;;;;;19.75;100.00;100619.59;5032307;28;20366;-77
2023/08/25 06:47:02;;;;;;;;;;;;;;;19.73;100.00;100616.31;5034183;28;20536;-78
2023/08/25 06:49:27;;;;;;;;;;;;;;;19.80;100.00;100614.19;5041101;28;19943;-78
2023/08/25 06:51:53;;;;;;;;;;;;;;;19.75;100.00;100614.16;5030856;28;20026;-77
2023/08/25 06:54:18;;;;;;;;;;;;;;;19.80;100.00;100612.28;5029937;28;19913;-77
2023/08/25 06:56:44;;;;;;;;;;;;;;;19.83;100.00;100609.03;5029633;28;20484;-77
2023/08/25 06:59:13;;;;;;;;;;;;;;;19.84;100.00;100604.41;5030823;28;20267;-77
2023/08/25 07:01:39;;;;;;;;;;;;;;;19.78;100.00;100603.56;5030624;28;19923;-79
2023/08/25 07:04:04;;;;;;;;;;;;;;;19.86;100.00;100604.97;5031388;28;19917;-77
2023/08/25 07:06:30;;;;;;;;;;;;;;;19.73;100.00;100602.72;5044181;28;19924;-78
2023/08/25 07:08:55;;;;;;;45.60;32.70;;;;;;;17.75;100.00;100311.25;5030198;28;20424;-78
2023/08/25 07:11:21;;;;;;;42.75;29.90;;;;;;;17.99;100.00;100302.78;5032560;28;20849;-77
2023/08/25 07:13:46;;;;;;;48.43;33.07;;;;;;;17.10;100.00;100217.47;5030366;28;20191;-78
2023/08/25 07:16:13;;;;;;;;;;;;;;;19.77;100.00;100631.88;5028491;28;20189;-78
2023/08/25 07:18:38;;;;;;;;;;;;;;;19.80;100.00;100622.34;5029546;28;19963;-78
2023/08/25 07:21:04;;;;;;;;;;;;;;;19.81;100.00;100626.72;5030545;28;20006;-77
2023/08/25 07:23:30;;;;;;;;;;;;;;;19.81;100.00;100630.25;5029622;28;19920;-77
2023/08/25 07:25:55;;;;;;;;;;;;;;;19.89;100.00;100625.38;5029348;28;20334;-78
2023/08/25 07:28:21;;;;;;;;;;;;;;;19.91;100.00;100623.22;5028751;28;19913;-77
2023/08/25 07:30:46;;;;;;;;;;;;;;;19.90;100.00;100622.38;5027928;28;19987;-78
2023/08/25 07:33:11;;;;;;;;;;;;;;;19.89;100.00;100623.47;5033798;28;20395;-78
2023/08/25 07:35:38;;;;;;;37.23;27.40;;;;;;;18.71;100.00;100486.81;5029189;28;20173;-77
2023/08/25 07:38:04;;;;;;;39.40;28.75;;;;;;;17.76;100.00;100288.50;5032466;28;20188;-77
2023/08/25 07:40:30;;;;;;;;;;;;;;;19.87;100.00;100614.75;5031808;28;19924;-76
2023/08/25 07:43:00;;;;;;;;;;;;;;;19.89;100.00;100609.88;5033830;28;19913;-76
2023/08/25 07:45:26;;;;;;;;;;;;;;;20.03;100.00;100615.66;5033219;28;19917;-77
2023/08/25 07:47:52;;;;;;;;;;;;;;;20.06;100.00;100606.94;5033722;28;19919;-78
2023/08/25 07:50:17;;;;;;;;;;;;;;;19.96;100.00;100596.00;5043634;28;19912;-77
2023/08/25 07:52:43;;;;;;;36.47;26.70;;;;;;;19.61;100.00;100524.84;5034918;28;20357;-76
2023/08/25 07:55:08;;;;;;;29.80;25.57;;;;;;;20.06;100.00;100579.72;5035246;28;20188;-77
2023/08/25 07:57:34;;;;;;;;;;;;;;;20.03;100.00;100570.19;5031196;28;20180;-76
2023/08/25 07:59:59;;;;;;;;;;;;;;;20.07;100.00;100575.91;5032340;28;19947;-78
2023/08/25 08:02:25;;;;;;;;;;;;;;;19.75;100.00;100521.66;5034334;28;20279;-77
2023/08/25 08:04:51;;;;;;;;;;;;;;;20.00;100.00;100561.75;5034602;28;19943;-77
2023/08/25 08:07:17;;;;;;;13.10;8.80;;;;;;;20.04;100.00;100551.94;5033386;28;20381;-77
2023/08/25 08:09:43;;;;;;;13.83;8.27;;;;;;;18.84;100.00;100351.63;5031594;28;20279;-77
2023/08/25 08:12:08;;;;;;;;;;;;;;;20.07;100.00;100552.22;5031947;28;21072;-77
2023/08/25 08:14:35;;;;;;;11.67;6.73;;;;;;;20.02;100.00;100549.50;5030817;28;20431;-77
2023/08/25 08:17:02;;;;;;;8.33;5.30;;;;;;;19.93;100.00;100514.88;5030521;28;20189;-77
2023/08/25 08:19:28;;;;;;;;;;;;;;;20.11;100.00;100541.63;5043292;28;20450;-77
2023/08/25 08:21:53;;;;;;;;;;;;;;;20.22;100.00;100531.53;5034022;28;19923;-77
2023/08/25 08:24:20;;;;;;;;;;;;;;;20.28;100.00;100527.75;5031219;28;19913;-76
2023/08/25 08:26:46;;;;;;;;;;;;;;;20.29;100.00;100515.78;5032362;28;19943;-77
2023/08/25 08:29:12;;;;;;;;;;;;;;;20.39;100.00;100517.66;5030351;28;20390;-78
2023/08/25 08:31:37;;;;;;;9.07;6.20;;;;;;;20.06;100.00;100451.75;5048343;28;19917;-77
2023/08/25 08:34:03;;;;;;;10.50;6.67;;;;;;;20.37;100.00;100523.41;5030771;28;20195;-77
2023/08/25 08:36:29;;;;;;;8.53;6.17;;;;;;;20.44;100.00;100532.09;5031113;28;20549;-78
2023/08/25 08:38:54;;;;;;;;;;;;;;;20.50;100.00;100522.84;5030862;28;20204;-78
2023/08/25 08:41:20;;;;;;;;;;;;;;;20.51;100.00;100516.31;5031595;28;19956;-77
2023/08/25 08:43:45;;;;;;;;;;;;;;;20.28;100.00;100517.69;5031955;28;19939;-78
2023/08/25 08:46:13;;;;;;;;;;;;;;;20.50;100.00;100516.59;5031310;28;19917;-78
2023/08/25 08:48:39;;;;;;;;;;;;;;;20.67;100.00;100505.44;5035260;28;19935;-77
2023/08/25 08:51:06;;;;;;;;;;;;;;;20.87;100.00;100502.69;5032952;28;19917;-77
2023/08/25 08:53:31;;;;;;;;;;;;;;;20.83;100.00;100501.63;5031416;28;20341;-78
2023/08/25 08:55:58;;;;;;;;;;;;;;;21.03;100.00;100502.66;5033006;28;19913;-78
2023/08/25 08:58:23;;;;;;;;;;;;;;;21.19;100.00;100498.78;5031022;28;19921;-77
2023/08/25 09:00:49;;;;;;;;;;;;;;;21.12;100.00;100487.38;5028877;28;19928;-77
2023/08/25 09:03:18;;;;;;;;;;;;;;;21.17;100.00;100490.06;5029426;28;19924;-77
2023/08/25 09:05:44;;;;;;;;;;;;;;;21.23;100.00;100499.84;5031477;28;19913;-77
2023/08/25 09:08:11;;;;;;;;;;;;;;;21.14;100.00;100504.25;5032024;28;19913;-78
2023/08/25 09:10:37;;;;;;;;;;;;;;;21.04;100.00;100507.84;5032146;28;20594;-78
2023/08/25 09:13:03;;;;;;;;;;;;;;;21.03;100.00;100506.22;5032856;28;19920;-78
2023/08/25 09:15:29;;;;;;;;;;;;;;;20.93;100.00;100501.59;5033284;28;19999;-77
2023/08/25 09:18:01;;;;;;;;;;;;;;;21.01;100.00;100502.13;5029291;28;19971;-78
2023/08/25 09:20:27;;;;;;;;;;;;;;;21.03;100.00;100511.66;5049569;28;19917;-78
2023/08/25 09:22:53;;;;;;;;;;;;;;;20.96;100.00;100505.66;5030538;28;19948;-78
2023/08/25 09:25:18;;;;;;;;;;;;;;;20.94;100.00;100505.13;5031305;28;19917;-77
2023/08/25 09:27:44;;;;;;;;;;;;;;;20.93;100.00;100517.94;5029173;28;19917;-77
2023/08/25 09:30:09;;;;;;;;;;;;;;;20.90;100.00;100513.03;5030769;28;20435;-78
2023/08/25 09:32:35;;;;;;;;;;;;;;;20.81;100.00;100514.69;5028825;28;20125;-76
2023/08/25 09:35:13;;;;;;;;;;;;;;;20.63;100.00;100510.63;5028665;28;19967;-77
2023/08/25 09:37:40;;;;;;;;;;;;;;;20.65;100.00;100511.16;5032052;28;19913;-76
2023/08/25 09:40:07;;;;;;;;;;;;;;;20.75;100.00;100511.16;5033980;28;19912;-76
2023/08/25 09:42:32;;;;;;;;;;;;;;;20.72;100.00;100510.91;5046218;28;19920;-77
2023/08/25 09:44:59;;;;;;;;;;;;;;;20.79;100.00;100513.31;5030484;28;19928;-77
2023/08/25 09:47:26;;;;;;;;;;;;;;;20.62;100.00;100522.59;5028997;28;19913;-76
2023/08/25 09:49:51;;;;;;;;;;;;;;;20.63;100.00;100531.63;5033712;28;19927;-78
2023/08/25 09:52:19;;;;;;;;;;;;;;;20.59;100.00;100528.59;5031427;28;19921;-77
2023/08/25 09:54:44;;;;;;;;;;;;;;;20.53;100.00;100535.16;5030295;28;19920;-77
2023/08/25 09:57:10;;;;;;;;;;;;;;;20.46;100.00;100529.94;5028388;28;19913;-76
2023/08/25 09:59:36;;;;;;;;;;;;;;;20.52;100.00;100528.88;5029311;28;19918;-76
2023/08/25 10:02:01;;;;;;;;;;;;;;;20.66;100.00;100534.59;5031148;28;20339;-77
2023/08/25 10:04:27;;;;;;;;;;;;;;;20.63;100.00;100534.34;5032273;28;19959;-76
2023/08/25 10:06:54;;;;;;;;;;;;;;;20.67;100.00;100529.97;5030814;28;19939;-77
2023/08/25 10:09:20;;;;;;;;;;;;;;;20.71;100.00;100536.50;5035151;28;20345;-77
2023/08/25 10:11:48;;;;;;;;;;;;;;;20.69;100.00;100528.59;5044183;28;20491;-77
2023/08/25 10:14:14;;;;;;;;;;;;;;;20.66;100.00;100531.06;5029445;28;19923;-77
2023/08/25 10:16:41;;;;;;;;;;;;;;;20.68;100.00;100529.69;5025433;28;19917;-77
2023/08/25 10:19:10;;;;;;;;;;;;;;;20.71;100.00;100531.03;5021804;28;19923;-78
2023/08/25 10:21:36;;;;;;;;;;;;;;;20.68;100.00;100528.88;5026718;28;19921;-77
2023/08/25 10:24:02;;;;;;;;;;;;;;;20.65;100.00;100522.06;5028002;28;20255;-78
2023/08/25 10:26:29;;;;;;;;;;;;;;;20.69;100.00;100525.06;5028985;28;19923;-77
2023/08/25 10:28:55;;;;;;;;;;;;;;;20.59;100.00;100516.88;5027401;28;19940;-77
2023/08/25 10:31:20;;;;;;;;;;;;;;;20.42;100.00;100517.94;5031026;28;20706;-77
2023/08/25 10:33:50;;;;;;;;;;;;;;;20.49;100.00;100523.13;5026030;28;20617;-77
2023/08/25 10:36:19;;;;;;;;;;;;;;;20.51;100.00;100520.94;5029117;28;20491;-77
2023/08/25 10:38:54;;;;;;;;;;;;;;;20.32;100.00;100523.41;5027289;28;20397;-77
2023/08/25 10:41:20;;;;;;;;;;;;;;;20.47;100.00;100525.31;5028494;28;19965;-77
2023/08/25 10:43:50;;;;;;;;;;;;;;;20.52;100.00;100520.72;5030286;28;20160;-77
2023/08/25 10:46:17;;;;;;;;;;;;;;;20.51;100.00;100523.66;5026636;28;19921;-75
2023/08/25 10:48:42;;;;;;;;;;;;;;;20.69;100.00;100517.72;5030326;28;19956;-77
2023/08/25 10:51:11;;;;;;;;;;;;;;;20.77;100.00;100519.88;5028818;28;19960;-76
2023/08/25 10:53:49;;;;;;;;;;;;;;;20.82;100.00;100516.31;5036321;28;21596;-77
2023/08/25 10:56:17;;;;;;;;;;;;;;;21.02;100.00;100520.09;5031356;28;19921;-76
2023/08/25 10:58:43;;;;;;;;;;;;;;;21.08;100.00;100521.72;5028006;28;19913;-76
2023/08/25 11:01:08;;;;;;;;;;;;;;;21.11;100.00;100521.97;5029085;28;19924;-76
2023/08/25 11:03:52;;;;;;;;;;;;;;;21.10;100.00;100525.00;5022209;28;20392;-75
2023/08/25 11:06:37;;;;;;;;;;;;;;;21.02;100.00;100525.56;5028414;28;19920;-76
2023/08/25 11:09:03;;;;;;;;;;;;;;;20.97;100.00;100532.66;5035897;28;19920;-76
2023/08/25 11:11:29;;;;;;;;;;;;;;;21.05;100.00;100527.72;5035818;28;19917;-76
2023/08/25 11:13:56;;;;;;;;;;;;;;;20.88;100.00;100525.31;5034059;28;19917;-76
2023/08/25 11:16:21;;;;;;;;;;;;;;;20.86;100.00;100524.75;5034603;28;20477;-76
2023/08/25 11:18:47;;;;;;;;;;;;;;;20.78;100.00;100520.69;5031916;28;19921;-76
2023/08/25 11:21:14;;;;;;;;;;;;;;;20.75;100.00;100516.59;5034199;28;19921;-76
2023/08/25 11:23:43;;;;;;;;;;;;;;;20.77;100.00;100519.03;5031732;28;19917;-76
2023/08/25 11:26:09;;;;;;;;;;;;;;;20.72;100.00;100514.44;5029095;28;19913;-76
2023/08/25 11:28:35;;;;;;;;;;;;;;;20.81;100.00;100516.59;5032867;28;19917;-76
2023/08/25 11:31:00;;;;;;;;;;;;;;;20.79;100.00;100514.13;5031399;28;19932;-77
2023/08/25 11:33:26;;;;;;;;;;;;;;;20.69;100.00;100516.91;5032785;28;19928;-77
2023/08/25 11:35:55;;;;;;;;;;;;;;;20.63;100.00;100521.53;5031706;28;20294;-77
2023/08/25 11:38:20;;;;;;;;;;;;;;;20.67;100.00;100514.44;5032436;28;19921;-76
2023/08/25 11:40:46;;;;;;;;;;;;;;;20.75;100.00;100502.97;5032681;28;20063;-78
2023/08/25 11:43:12;;;;;;;;;;;;;;;20.67;100.00;100503.53;5031025;28;20328;-77
2023/08/25 11:45:38;;;;;;;;;;;;;;;20.63;100.00;100505.19;5034130;28;20400;-77
2023/08/25 11:48:03;;;;;;;;;;;;;;;20.60;100.00;100494.84;5032067;28;19913;-77
2023/08/25 11:50:29;;;;;;;;;;;;;;;20.48;100.00;100497.81;5035801;28;19955;-77
2023/08/25 11:52:55;;;;;;;;;;;;;;;20.47;100.00;100496.16;5031895;28;19921;-77
2023/08/25 11:55:20;;;;;;;;;;;;;;;20.52;100.00;100501.63;5031129;28;19916;-77
2023/08/25 11:57:49;;;;;;;;;;;;;;;20.43;100.00;100510.59;5034177;28;19920;-79
2023/08/25 12:00:15;;;;;;;;;;;;;;;20.31;100.00;100506.25;5031557;28;19913;-78
2023/08/25 12:02:40;;;;;;;;;;;;;;;20.30;100.00;100509.22;5033273;28;20336;-78
2023/08/25 12:05:05;;;;;;;;;;;;;;;20.26;100.00;100510.88;5031183;28;20848;-78
2023/08/25 12:07:31;;;;;;;;;;;;;;;20.18;100.00;100519.56;5033025;28;19920;-77
2023/08/25 12:10:00;;;;;;;;;;;;;;;20.11;100.00;100525.28;5030416;28;19920;-77
2023/08/25 12:12:30;;;;;;;;;;;;;;;20.09;100.00;100550.03;5027446;28;19967;-78